EDT,Max TemperatureF,Mean TemperatureF,Min TemperatureF,Max Dew PointF,MeanDew PointF,Min DewpointF,Max Humidity, Mean Humidity, Min Humidity, Max Sea Level PressureIn, Mean Sea Level PressureIn, Min Sea Level PressureIn, Max VisibilityMiles, Mean VisibilityMiles, Min VisibilityMiles, Max Wind SpeedMPH, Mean Wind SpeedMPH, Max Gust SpeedMPH,PrecipitationIn, CloudCover, Events, WindDirDegrees
2012-8-1,77,72,66,70,67,64,94,87,78,29.96,29.92,29.87,10,10,8,15,7,,0.00,2,,210
2012-8-2,80,74,69,72,70,66,100,86,74,29.95,29.90,29.85,10,9,0,16,6,22,0.00,3,,224
2012-8-3,82,76,71,75,72,70,94,87,74,30.14,30.04,29.95,10,7,0,16,12,21,0.00,4,,230
2012-8-4,75,74,73,73,73,72,100,96,94,30.24,30.18,30.14,10,2,0,12,9,,0.00,7,,237
2012-8-5,78,76,73,73,72,70,94,89,83,30.06,30.03,30.01,10,10,9,22,16,31,0.00,3,,209
2012-8-6,82,76,69,73,67,61,100,77,54,30.02,29.99,29.95,10,9,4,16,10,24,0.00,4,,283
2012-8-7,78,71,64,66,63,59,88,74,54,30.04,30.01,29.99,10,10,10,9,5,,0.00,0,,210
2012-8-8,80,74,69,70,67,63,94,77,57,30.03,30.00,29.98,10,10,10,12,7,,0.00,0,,198
2012-8-9,80,74,69,73,70,68,94,86,78,30.00,29.98,29.95,10,8,0,14,5,,0.00,6,,208
2012-8-10,,,,,,,,,,,,,,,,,,,,,,
2012-8-11,77,73,73,73,72,70,89,88,88,29.94,29.93,29.92,10,9,8,14,12,18,0.00,8,,190
2012-8-12,78,76,73,73,72,70,94,86,78,29.95,29.93,29.91,10,10,8,16,13,21,0.00,1,,217
2012-8-13,80,74,69,72,67,63,94,77,54,29.99,29.96,29.94,10,10,7,18,9,21,0.00,0,,249
2012-8-14,82,76,69,70,66,61,94,75,48,29.99,29.96,29.93,10,10,10,12,6,,0.00,0,,243
2012-8-15,73,71,69,70,69,66,94,87,83,29.95,29.91,29.87,10,10,10,13,6,,0.00,3,,171
2012-8-16,82,76,71,70,67,64,88,71,58,29.88,29.86,29.84,10,10,10,13,9,18,0.00,1,,270
2012-8-17,80,74,69,72,66,61,88,75,51,29.89,29.87,29.84,10,10,10,17,9,20,0.00,0,,247
2012-8-18,64,64,64,63,63,63,94,94,94,29.90,29.90,29.89,10,8,6,8,7,,0.00,7,,10
2012-8-19,73,70,66,61,60,57,73,68,65,29.96,29.95,29.94,10,8,5,8,6,,0.00,0,,278
2012-8-20,73,70,64,61,58,55,78,65,53,29.94,29.91,29.87,10,10,8,7,4,,0.00,0,,195
2012-8-21,78,71,64,64,62,57,88,76,54,30.11,30.02,29.93,10,10,10,12,7,,0.00,2,,246
2012-8-22,78,72,66,64,61,55,94,74,44,30.17,30.13,30.10,10,10,10,8,6,,0.00,0,,323
2012-8-23,75,75,75,68,67,66,78,76,73,30.19,30.19,30.18,10,10,10,7,7,,0.00,0,,230
2012-8-24,73,,73,66,66,66,78,78,78,30.17,30.17,30.17,10,10,10,4,4,,0.00,0,,310
2012-8-25,75,74,73,64,63,61,73,69,61,30.32,30.31,30.30,10,10,10,12,10,,0.00,0,,97
2012-8-26,73,73,73,64,63,61,73,71,65,30.35,30.32,30.28,10,10,10,12,10,,0.00,1,,96
2012-8-27,73,,73,66,66,66,78,78,78,30.22,30.22,30.22,10,10,10,0,0,,0.00,0,,-1
2012-8-28,,,,,,,,,,,,,,,,,,,,,,
2012-8-29,73,68,62,59,54,52,78,60,47,30.01,29.97,29.95,10,10,10,12,7,,0.00,0,,285
2012-8-30,77,68,60,64,57,52,83,66,44,30.10,30.05,30.01,10,10,10,17,8,22,0.00,0,,271
2012-8-31,80,74,68,70,66,61,88,76,58,30.04,29.97,29.88,10,9,3,21,14,26,0.00,0,,243